createdAt,value
2022-09-30T00:00:29.779Z,65.42
2022-09-30T00:06:09.297Z,66.47
2022-09-30T00:11:33.949Z,66.61
2022-09-30T00:16:54.805Z,65.77
2022-09-30T00:22:16.114Z,65.63
2022-09-30T00:27:38.737Z,66.46
2022-09-30T00:32:59.749Z,66.33
2022-09-30T00:38:20.624Z,66.25
2022-09-30T00:43:45.602Z,66.36
2022-09-30T00:49:14.972Z,66.30
2022-09-30T00:54:36.234Z,65.89
2022-09-30T00:59:57.507Z,65.93
2022-09-30T01:05:18.333Z,66.28
2022-09-30T01:10:39.084Z,66.54
2022-09-30T01:16:06.913Z,66.36
2022-09-30T01:21:44.349Z,66.08
2022-09-30T01:27:30.583Z,66.69
2022-09-30T01:33:10.530Z,66.00
2022-09-30T01:38:48.629Z,65.90
2022-09-30T01:44:11.345Z,66.20
2022-09-30T01:49:49.455Z,66.39
2022-09-30T01:55:28.404Z,66.26
2022-09-30T02:00:53.705Z,66.88
2022-09-30T02:06:20.860Z,66.11
2022-09-30T02:11:42.539Z,66.34
2022-09-30T02:17:24.046Z,66.33
2022-09-30T02:23:00.742Z,66.31
2022-09-30T02:28:27.525Z,67.09
2022-09-30T02:33:55.147Z,66.90
2022-09-30T02:39:26.723Z,67.01
2022-09-30T02:44:52.299Z,67.60
2022-09-30T02:50:39.339Z,67.68
2022-09-30T02:56:14.704Z,68.13
2022-09-30T03:01:35.676Z,67.80
2022-09-30T03:06:56.580Z,67.88
2022-09-30T03:12:24.234Z,67.78
2022-09-30T03:18:10.696Z,68.38
2022-09-30T03:23:40.484Z,68.13
2022-09-30T03:29:23.134Z,68.27
2022-09-30T03:34:47.146Z,68.13
2022-09-30T03:40:30.598Z,68.51
2022-09-30T03:46:01.639Z,67.67
2022-09-30T03:51:25.111Z,67.99
2022-09-30T03:56:45.876Z,68.13
2022-09-30T04:02:10.603Z,68.01
2022-09-30T04:07:31.370Z,68.23
2022-09-30T04:12:54.855Z,68.14
2022-09-30T04:18:15.517Z,68.27
2022-09-30T04:23:37.518Z,68.30
2022-09-30T04:28:58.877Z,68.50
2022-09-30T04:34:19.530Z,68.03
2022-09-30T04:39:40.947Z,67.92
2022-09-30T04:45:02.722Z,68.44
2022-09-30T04:50:24.029Z,68.09
2022-09-30T04:55:45.683Z,68.09
2022-09-30T05:01:08.776Z,68.15
2022-09-30T05:06:29.461Z,67.92
2022-09-30T05:11:50.157Z,68.04
2022-09-30T05:17:10.944Z,68.77
2022-09-30T05:22:31.560Z,70.61
2022-09-30T05:27:52.222Z,68.19
2022-09-30T05:33:14.270Z,67.61
2022-09-30T05:38:35.597Z,67.97
2022-09-30T05:44:01.167Z,68.29
2022-09-30T05:49:22.293Z,68.48
2022-09-30T05:54:44.509Z,68.65
2022-09-30T06:00:06.642Z,68.39
2022-09-30T06:05:31.979Z,68.41
2022-09-30T06:10:52.928Z,68.55
2022-09-30T06:16:14.071Z,68.18
2022-09-30T06:21:35.052Z,69.04
2022-09-30T06:26:55.923Z,69.25
2022-09-30T06:32:17.619Z,68.88
2022-09-30T06:37:38.839Z,68.87
2022-09-30T06:43:00.567Z,69.22
2022-09-30T06:48:35.074Z,68.72
2022-09-30T06:54:00.185Z,68.83
2022-09-30T06:59:21.436Z,69.27
2022-09-30T07:04:42.802Z,68.83
2022-09-30T07:10:04.667Z,71.40
2022-09-30T07:15:25.664Z,69.49
2022-09-30T07:20:54.195Z,70.26
2022-09-30T07:26:20.807Z,68.28
2022-09-30T07:31:41.396Z,67.83
2022-09-30T07:37:04.275Z,69.38
2022-09-30T07:42:26.798Z,71.31
2022-09-30T07:47:53.267Z,69.34
2022-09-30T07:53:14.738Z,70.97
2022-09-30T07:58:36.167Z,70.16
2022-09-30T08:04:02.134Z,70.12
2022-09-30T08:09:25.095Z,67.69
2022-09-30T08:14:46.196Z,67.14
2022-09-30T08:20:12.981Z,67.70
2022-09-30T08:25:34.926Z,67.56
2022-09-30T08:30:55.646Z,67.56
2022-09-30T08:36:19.078Z,67.74
2022-09-30T08:42:25.168Z,68.29
2022-09-30T08:48:13.856Z,67.55
2022-09-30T08:53:46.943Z,66.97
2022-09-30T08:59:21.295Z,67.34
2022-09-30T09:04:42.663Z,67.62
2022-09-30T09:10:20.906Z,67.22
2022-09-30T09:16:08.085Z,67.52
2022-09-30T09:21:54.645Z,67.80
2022-09-30T09:27:38.614Z,67.92
2022-09-30T09:33:16.114Z,67.61
2022-09-30T09:38:46.201Z,67.16
2022-09-30T09:44:26.934Z,67.02
2022-09-30T09:49:57.679Z,66.36
2022-09-30T09:55:22.365Z,66.61
2022-09-30T10:00:46.600Z,66.79
2022-09-30T10:06:10.316Z,66.41
2022-09-30T10:11:31.293Z,66.25
2022-09-30T10:17:00.147Z,65.84
2022-09-30T10:22:28.303Z,65.81
2022-09-30T10:27:53.256Z,68.11
2022-09-30T10:33:20.633Z,66.28
2022-09-30T10:39:07.350Z,66.58
2022-09-30T10:44:29.773Z,64.09
2022-09-30T10:50:15.457Z,63.79
2022-09-30T10:55:43.238Z,64.02
2022-09-30T11:01:32.859Z,63.61
2022-09-30T11:07:04.303Z,62.78
2022-09-30T11:12:47.485Z,62.91
2022-09-30T11:18:21.217Z,63.32
2022-09-30T11:23:52.256Z,62.78
2022-09-30T11:29:35.826Z,62.43
2022-09-30T11:35:11.958Z,61.77
2022-09-30T11:41:07.405Z,61.91
2022-09-30T11:46:46.895Z,61.87
2022-09-30T11:52:18.486Z,61.47
2022-09-30T11:58:08.422Z,61.06
2022-09-30T12:03:50.746Z,60.37
2022-09-30T12:09:32.515Z,60.42
2022-09-30T12:15:07.598Z,60.15
2022-09-30T12:20:35.181Z,60.15
2022-09-30T12:26:00.170Z,59.28
2022-09-30T12:31:30.722Z,58.96
2022-09-30T12:37:11.260Z,58.98
2022-09-30T12:43:03.367Z,59.25
2022-09-30T12:48:34.404Z,58.68
2022-09-30T12:54:32.054Z,58.38
2022-09-30T12:59:57.319Z,58.75
2022-09-30T13:05:27.097Z,58.36
2022-09-30T13:10:57.750Z,58.63
2022-09-30T13:16:57.055Z,58.66
2022-09-30T13:22:21.087Z,58.49
2022-09-30T13:27:43.361Z,58.79
2022-09-30T13:33:04.551Z,58.82
2022-09-30T13:38:40.221Z,58.41
2022-09-30T13:44:14.974Z,58.15
2022-09-30T13:49:45.889Z,58.37
2022-09-30T13:55:17.737Z,58.07
2022-09-30T14:00:46.693Z,57.89
2022-09-30T14:06:26.892Z,58.16
2022-09-30T14:12:07.418Z,58.25
2022-09-30T14:17:43.047Z,58.30
2022-09-30T14:23:05.239Z,58.35
2022-09-30T14:28:38.255Z,57.96
2022-09-30T14:33:59.532Z,57.93
2022-09-30T14:39:26.287Z,57.74
2022-09-30T14:44:47.346Z,57.38
2022-09-30T14:50:17.674Z,57.02
2022-09-30T14:55:38.690Z,56.98
2022-09-30T15:00:59.752Z,56.69
2022-09-30T15:06:34.032Z,56.50
2022-09-30T15:11:55.763Z,57.14
2022-09-30T15:17:21.457Z,57.70
2022-09-30T15:22:42.524Z,57.28
2022-09-30T15:28:04.124Z,57.33
2022-09-30T15:33:29.035Z,57.80
2022-09-30T15:38:52.079Z,57.81
2022-09-30T15:44:37.278Z,58.23
2022-09-30T15:49:58.126Z,58.81
2022-09-30T15:55:41.809Z,58.74
2022-09-30T16:01:24.919Z,59.06
2022-09-30T16:07:08.572Z,59.03
2022-09-30T16:12:34.953Z,58.69
2022-09-30T16:17:57.902Z,58.67
2022-09-30T16:23:38.863Z,59.38
2022-09-30T16:29:08.252Z,59.58
2022-09-30T16:34:36.918Z,59.58
2022-09-30T16:40:10.464Z,59.30
2022-09-30T16:45:32.468Z,59.57
2022-09-30T16:51:02.153Z,59.64
2022-09-30T16:56:26.681Z,59.48
2022-09-30T17:01:48.966Z,59.45
2022-09-30T17:07:14.419Z,59.50
2022-09-30T17:12:35.161Z,59.74
2022-09-30T17:17:56.508Z,59.73
2022-09-30T17:23:17.106Z,60.05
2022-09-30T17:28:37.811Z,59.93
2022-09-30T17:33:58.608Z,59.91
2022-09-30T17:39:19.247Z,59.85
2022-09-30T17:44:39.913Z,60.28
2022-09-30T17:50:02.767Z,60.51
2022-09-30T17:55:23.679Z,60.29
2022-09-30T18:00:46.866Z,60.79
2022-09-30T18:06:07.869Z,60.94
2022-09-30T18:11:31.039Z,61.47
2022-09-30T18:16:52.782Z,61.39
2022-09-30T18:22:13.711Z,61.11
2022-09-30T18:27:34.412Z,61.16
2022-09-30T18:32:56.323Z,61.74
2022-09-30T18:38:16.995Z,61.54
2022-09-30T18:43:37.811Z,61.46
2022-09-30T18:48:58.978Z,61.01
2022-09-30T18:54:20.267Z,61.48
2022-09-30T18:59:41.241Z,61.48
2022-09-30T19:05:01.986Z,61.64
2022-09-30T19:10:24.506Z,61.41
2022-09-30T19:15:46.229Z,61.45
2022-09-30T19:21:11.286Z,61.81
2022-09-30T19:26:34.826Z,62.13
2022-09-30T19:32:00.190Z,61.93
2022-09-30T19:37:27.383Z,62.17
2022-09-30T19:42:49.894Z,62.49
2022-09-30T19:48:11.081Z,62.42
2022-09-30T19:53:40.965Z,62.26
2022-09-30T19:59:03.271Z,62.28
2022-09-30T20:04:25.795Z,62.49
2022-09-30T20:09:49.281Z,62.75
2022-09-30T20:15:46.320Z,63.14
2022-09-30T20:21:18.210Z,62.87
2022-09-30T20:26:40.873Z,63.27
2022-09-30T20:32:02.312Z,63.58
2022-09-30T20:37:23.035Z,63.29
2022-09-30T20:42:44.227Z,63.44
2022-09-30T20:48:05.208Z,63.39
2022-09-30T20:53:25.802Z,63.32
2022-09-30T20:58:46.786Z,63.27
2022-09-30T21:04:07.488Z,63.35
2022-09-30T21:09:29.484Z,63.52
2022-09-30T21:14:50.038Z,63.12
2022-09-30T21:20:10.860Z,63.30
2022-09-30T21:25:32.466Z,63.14
2022-09-30T21:30:53.691Z,63.62
2022-09-30T21:36:14.628Z,63.59
2022-09-30T21:41:35.869Z,63.48
2022-09-30T21:47:05.272Z,63.62
2022-09-30T21:52:28.590Z,63.17
2022-09-30T21:57:53.112Z,63.08
2022-09-30T22:03:16.784Z,63.39
2022-09-30T22:08:41.797Z,62.81
2022-09-30T22:14:02.878Z,63.38
2022-09-30T22:19:23.734Z,63.34
2022-09-30T22:24:44.432Z,63.34
2022-09-30T22:30:07.189Z,63.54
2022-09-30T22:35:46.316Z,63.15
2022-09-30T22:41:06.933Z,63.48
2022-09-30T22:46:29.341Z,63.12
2022-09-30T22:51:54.461Z,63.17
2022-09-30T22:57:15.991Z,62.75
2022-09-30T23:02:37.013Z,63.21
2022-09-30T23:07:57.597Z,63.18
2022-09-30T23:13:22.085Z,63.24
2022-09-30T23:18:46.398Z,63.09
2022-09-30T23:24:07.395Z,63.22
2022-09-30T23:29:28.054Z,63.73
2022-09-30T23:34:48.699Z,63.63
2022-09-30T23:40:10.062Z,63.42
2022-09-30T23:45:31.315Z,63.81
2022-09-30T23:50:52.191Z,63.60
2022-09-30T23:56:16.356Z,63.72
